sensor_id;sensor_type;location;lat;lon;timestamp;P1;durP1;ratioP1;P2;durP2;ratioP2
26963;SDS011;14521;48.148;-1.656;2023-12-14T00:02:00;1.10;;;0.30;;
26963;SDS011;14521;48.148;-1.656;2023-12-14T00:05:22;0.63;;;0.30;;
26963;SDS011;14521;48.148;-1.656;2023-12-14T00:08:44;3.13;;;0.20;;
26963;SDS011;14521;48.148;-1.656;2023-12-14T00:12:07;0.82;;;0.50;;
26963;SDS011;14521;48.148;-1.656;2023-12-14T00:15:29;0.32;;;0.28;;
26963;SDS011;14521;48.148;-1.656;2023-12-14T00:18:51;0.50;;;0.20;;
26963;SDS011;14521;48.148;-1.656;2023-12-14T00:22:14;0.30;;;0.30;;
26963;SDS011;14521;48.148;-1.656;2023-12-14T00:25:36;2.08;;;0.50;;
26963;SDS011;14521;48.148;-1.656;2023-12-14T00:28:58;0.80;;;0.30;;
26963;SDS011;14521;48.148;-1.656;2023-12-14T00:32:23;1.40;;;0.60;;
26963;SDS011;14521;48.148;-1.656;2023-12-14T00:35:45;0.60;;;0.30;;
26963;SDS011;14521;48.148;-1.656;2023-12-14T00:39:07;0.35;;;0.15;;
26963;SDS011;14521;48.148;-1.656;2023-12-14T00:42:29;1.15;;;0.50;;
26963;SDS011;14521;48.148;-1.656;2023-12-14T00:45:52;1.50;;;0.60;;
26963;SDS011;14521;48.148;-1.656;2023-12-14T00:49:15;4.20;;;0.30;;
26963;SDS011;14521;48.148;-1.656;2023-12-14T00:52:39;0.73;;;0.30;;
26963;SDS011;14521;48.148;-1.656;2023-12-14T00:56:02;0.75;;;0.30;;
26963;SDS011;14521;48.148;-1.656;2023-12-14T00:59:24;1.23;;;0.10;;
26963;SDS011;14521;48.148;-1.656;2023-12-14T01:02:47;0.95;;;0.35;;
26963;SDS011;14521;48.148;-1.656;2023-12-14T01:06:09;0.65;;;0.32;;
26963;SDS011;14521;48.148;-1.656;2023-12-14T01:09:31;0.40;;;0.20;;
26963;SDS011;14521;48.148;-1.656;2023-12-14T01:12:54;0.50;;;0.30;;
26963;SDS011;14521;48.148;-1.656;2023-12-14T01:16:16;0.73;;;0.30;;
26963;SDS011;14521;48.148;-1.656;2023-12-14T01:19:41;0.43;;;0.22;;
26963;SDS011;14521;48.148;-1.656;2023-12-14T01:23:04;1.30;;;0.40;;
26963;SDS011;14521;48.148;-1.656;2023-12-14T01:26:26;1.27;;;0.30;;
26963;SDS011;14521;48.148;-1.656;2023-12-14T01:29:49;0.60;;;0.25;;
26963;SDS011;14521;48.148;-1.656;2023-12-14T01:33:11;0.98;;;0.30;;
26963;SDS011;14521;48.148;-1.656;2023-12-14T01:36:34;0.75;;;0.40;;
26963;SDS011;14521;48.148;-1.656;2023-12-14T01:39:56;1.50;;;0.40;;
26963;SDS011;14521;48.148;-1.656;2023-12-14T01:43:18;0.63;;;0.32;;
26963;SDS011;14521;48.148;-1.656;2023-12-14T01:46:41;0.77;;;0.38;;
26963;SDS011;14521;48.148;-1.656;2023-12-14T01:50:03;0.95;;;0.40;;
26963;SDS011;14521;48.148;-1.656;2023-12-14T01:53:26;1.75;;;0.30;;
26963;SDS011;14521;48.148;-1.656;2023-12-14T01:56:48;2.20;;;0.40;;
26963;SDS011;14521;48.148;-1.656;2023-12-14T02:00:17;0.55;;;0.25;;
26963;SDS011;14521;48.148;-1.656;2023-12-14T02:04:00;0.77;;;0.40;;
26963;SDS011;14521;48.148;-1.656;2023-12-14T02:07:23;0.20;;;0.15;;
26963;SDS011;14521;48.148;-1.656;2023-12-14T02:10:45;0.30;;;0.20;;
26963;SDS011;14521;48.148;-1.656;2023-12-14T02:14:11;1.30;;;0.28;;
26963;SDS011;14521;48.148;-1.656;2023-12-14T02:17:34;0.47;;;0.20;;
26963;SDS011;14521;48.148;-1.656;2023-12-14T02:20:56;0.77;;;0.30;;
26963;SDS011;14521;48.148;-1.656;2023-12-14T02:24:19;0.75;;;0.20;;
26963;SDS011;14521;48.148;-1.656;2023-12-14T02:27:41;0.45;;;0.30;;
26963;SDS011;14521;48.148;-1.656;2023-12-14T02:31:04;0.90;;;0.20;;
26963;SDS011;14521;48.148;-1.656;2023-12-14T02:34:26;0.57;;;0.30;;
26963;SDS011;14521;48.148;-1.656;2023-12-14T02:37:49;0.30;;;0.20;;
26963;SDS011;14521;48.148;-1.656;2023-12-14T02:41:11;1.30;;;0.17;;
26963;SDS011;14521;48.148;-1.656;2023-12-14T02:44:34;0.20;;;0.20;;
26963;SDS011;14521;48.148;-1.656;2023-12-14T02:47:56;0.80;;;0.20;;
26963;SDS011;14521;48.148;-1.656;2023-12-14T02:51:18;0.98;;;0.40;;
26963;SDS011;14521;48.148;-1.656;2023-12-14T02:54:40;0.30;;;0.10;;
26963;SDS011;14521;48.148;-1.656;2023-12-14T02:58:03;0.50;;;0.20;;
26963;SDS011;14521;48.148;-1.656;2023-12-14T03:01:25;0.60;;;0.20;;
26963;SDS011;14521;48.148;-1.656;2023-12-14T03:04:47;0.85;;;0.28;;
26963;SDS011;14521;48.148;-1.656;2023-12-14T03:08:10;0.20;;;0.20;;
26963;SDS011;14521;48.148;-1.656;2023-12-14T03:11:32;1.08;;;0.40;;
26963;SDS011;14521;48.148;-1.656;2023-12-14T03:14:55;0.43;;;0.30;;
26963;SDS011;14521;48.148;-1.656;2023-12-14T03:18:17;0.60;;;0.20;;
26963;SDS011;14521;48.148;-1.656;2023-12-14T03:21:40;0.60;;;0.20;;
26963;SDS011;14521;48.148;-1.656;2023-12-14T03:25:02;0.45;;;0.20;;
26963;SDS011;14521;48.148;-1.656;2023-12-14T03:28:25;0.30;;;0.22;;
26963;SDS011;14521;48.148;-1.656;2023-12-14T03:31:47;0.75;;;0.35;;
26963;SDS011;14521;48.148;-1.656;2023-12-14T03:35:10;0.57;;;0.50;;
26963;SDS011;14521;48.148;-1.656;2023-12-14T03:38:32;0.82;;;0.20;;
26963;SDS011;14521;48.148;-1.656;2023-12-14T03:41:55;0.88;;;0.40;;
26963;SDS011;14521;48.148;-1.656;2023-12-14T03:45:17;1.10;;;0.20;;
26963;SDS011;14521;48.148;-1.656;2023-12-14T03:48:40;0.65;;;0.30;;
26963;SDS011;14521;48.148;-1.656;2023-12-14T03:52:02;0.20;;;0.15;;
26963;SDS011;14521;48.148;-1.656;2023-12-14T03:55:25;1.63;;;0.45;;
26963;SDS011;14521;48.148;-1.656;2023-12-14T03:58:47;0.63;;;0.30;;
26963;SDS011;14521;48.148;-1.656;2023-12-14T04:02:09;0.85;;;0.38;;
26963;SDS011;14521;48.148;-1.656;2023-12-14T04:05:32;0.25;;;0.20;;
26963;SDS011;14521;48.148;-1.656;2023-12-14T04:08:54;0.90;;;0.20;;
26963;SDS011;14521;48.148;-1.656;2023-12-14T04:12:16;1.45;;;0.38;;
26963;SDS011;14521;48.148;-1.656;2023-12-14T04:15:39;0.80;;;0.30;;
26963;SDS011;14521;48.148;-1.656;2023-12-14T04:19:01;2.10;;;0.52;;
26963;SDS011;14521;48.148;-1.656;2023-12-14T04:22:25;0.73;;;0.30;;
26963;SDS011;14521;48.148;-1.656;2023-12-14T04:25:48;0.65;;;0.30;;
26963;SDS011;14521;48.148;-1.656;2023-12-14T04:29:10;0.30;;;0.20;;
26963;SDS011;14521;48.148;-1.656;2023-12-14T04:32:33;0.90;;;0.70;;
26963;SDS011;14521;48.148;-1.656;2023-12-14T04:35:55;1.13;;;0.32;;
26963;SDS011;14521;48.148;-1.656;2023-12-14T04:39:18;1.05;;;0.60;;
26963;SDS011;14521;48.148;-1.656;2023-12-14T04:42:40;0.13;;;0.13;;
26963;SDS011;14521;48.148;-1.656;2023-12-14T04:46:02;1.23;;;0.25;;
26963;SDS011;14521;48.148;-1.656;2023-12-14T04:49:25;0.52;;;0.20;;
26963;SDS011;14521;48.148;-1.656;2023-12-14T04:52:47;1.15;;;0.25;;
26963;SDS011;14521;48.148;-1.656;2023-12-14T04:56:10;0.63;;;0.40;;
26963;SDS011;14521;48.148;-1.656;2023-12-14T04:59:35;2.13;;;0.38;;
26963;SDS011;14521;48.148;-1.656;2023-12-14T05:02:58;0.68;;;0.30;;
26963;SDS011;14521;48.148;-1.656;2023-12-14T05:06:20;1.02;;;0.30;;
26963;SDS011;14521;48.148;-1.656;2023-12-14T05:09:43;0.73;;;0.38;;
26963;SDS011;14521;48.148;-1.656;2023-12-14T05:13:05;0.38;;;0.30;;
26963;SDS011;14521;48.148;-1.656;2023-12-14T05:16:28;0.95;;;0.45;;
26963;SDS011;14521;48.148;-1.656;2023-12-14T05:19:50;1.23;;;0.50;;
26963;SDS011;14521;48.148;-1.656;2023-12-14T05:23:12;0.50;;;0.30;;
26963;SDS011;14521;48.148;-1.656;2023-12-14T05:26:35;0.70;;;0.30;;
26963;SDS011;14521;48.148;-1.656;2023-12-14T05:29:57;0.68;;;0.40;;
26963;SDS011;14521;48.148;-1.656;2023-12-14T05:33:19;0.75;;;0.30;;
26963;SDS011;14521;48.148;-1.656;2023-12-14T05:36:42;0.85;;;0.30;;
26963;SDS011;14521;48.148;-1.656;2023-12-14T05:40:04;0.55;;;0.40;;
26963;SDS011;14521;48.148;-1.656;2023-12-14T05:43:27;0.63;;;0.25;;
26963;SDS011;14521;48.148;-1.656;2023-12-14T05:46:50;1.88;;;0.30;;
26963;SDS011;14521;48.148;-1.656;2023-12-14T05:50:12;0.65;;;0.30;;
26963;SDS011;14521;48.148;-1.656;2023-12-14T05:53:35;0.73;;;0.30;;
26963;SDS011;14521;48.148;-1.656;2023-12-14T05:57:01;2.35;;;0.30;;
26963;SDS011;14521;48.148;-1.656;2023-12-14T06:00:23;1.45;;;0.40;;
26963;SDS011;14521;48.148;-1.656;2023-12-14T06:03:46;0.68;;;0.40;;
26963;SDS011;14521;48.148;-1.656;2023-12-14T06:07:08;0.40;;;0.17;;
26963;SDS011;14521;48.148;-1.656;2023-12-14T06:10:30;1.00;;;0.20;;
26963;SDS011;14521;48.148;-1.656;2023-12-14T06:13:53;1.55;;;0.32;;
26963;SDS011;14521;48.148;-1.656;2023-12-14T06:17:16;0.50;;;0.17;;
26963;SDS011;14521;48.148;-1.656;2023-12-14T06:20:39;1.85;;;0.32;;
26963;SDS011;14521;48.148;-1.656;2023-12-14T06:24:02;0.60;;;0.40;;
26963;SDS011;14521;48.148;-1.656;2023-12-14T06:27:25;0.47;;;0.30;;
26963;SDS011;14521;48.148;-1.656;2023-12-14T06:30:48;0.73;;;0.20;;
26963;SDS011;14521;48.148;-1.656;2023-12-14T06:34:10;0.38;;;0.30;;
26963;SDS011;14521;48.148;-1.656;2023-12-14T06:37:33;0.30;;;0.20;;
26963;SDS011;14521;48.148;-1.656;2023-12-14T06:40:55;0.30;;;0.20;;
26963;SDS011;14521;48.148;-1.656;2023-12-14T06:44:17;0.28;;;0.15;;
26963;SDS011;14521;48.148;-1.656;2023-12-14T06:47:40;1.27;;;0.20;;
26963;SDS011;14521;48.148;-1.656;2023-12-14T06:51:04;0.52;;;0.20;;
26963;SDS011;14521;48.148;-1.656;2023-12-14T06:54:27;0.95;;;0.30;;
26963;SDS011;14521;48.148;-1.656;2023-12-14T06:57:49;0.98;;;0.20;;
26963;SDS011;14521;48.148;-1.656;2023-12-14T07:01:15;0.30;;;0.22;;
26963;SDS011;14521;48.148;-1.656;2023-12-14T07:04:37;2.80;;;0.32;;
26963;SDS011;14521;48.148;-1.656;2023-12-14T07:08:00;0.68;;;0.20;;
26963;SDS011;14521;48.148;-1.656;2023-12-14T07:11:22;0.98;;;0.40;;
26963;SDS011;14521;48.148;-1.656;2023-12-14T07:14:45;0.20;;;0.15;;
26963;SDS011;14521;48.148;-1.656;2023-12-14T07:18:08;1.90;;;0.40;;
26963;SDS011;14521;48.148;-1.656;2023-12-14T07:21:30;2.20;;;0.35;;
26963;SDS011;14521;48.148;-1.656;2023-12-14T07:24:53;1.00;;;0.30;;
26963;SDS011;14521;48.148;-1.656;2023-12-14T07:28:21;0.40;;;0.30;;
26963;SDS011;14521;48.148;-1.656;2023-12-14T07:31:44;1.00;;;0.38;;
26963;SDS011;14521;48.148;-1.656;2023-12-14T07:35:06;1.48;;;0.40;;
26963;SDS011;14521;48.148;-1.656;2023-12-14T07:38:29;1.13;;;0.63;;
26963;SDS011;14521;48.148;-1.656;2023-12-14T07:41:51;1.77;;;0.32;;
26963;SDS011;14521;48.148;-1.656;2023-12-14T07:45:13;5.82;;;0.52;;
26963;SDS011;14521;48.148;-1.656;2023-12-14T07:48:36;0.70;;;0.30;;
26963;SDS011;14521;48.148;-1.656;2023-12-14T07:51:58;1.95;;;0.32;;
26963;SDS011;14521;48.148;-1.656;2023-12-14T07:55:20;0.63;;;0.20;;
26963;SDS011;14521;48.148;-1.656;2023-12-14T07:58:43;1.75;;;0.30;;
26963;SDS011;14521;48.148;-1.656;2023-12-14T08:02:05;4.80;;;0.50;;
26963;SDS011;14521;48.148;-1.656;2023-12-14T08:05:28;4.15;;;0.40;;
26963;SDS011;14521;48.148;-1.656;2023-12-14T08:08:50;1.35;;;0.32;;
26963;SDS011;14521;48.148;-1.656;2023-12-14T08:12:13;1.00;;;0.30;;
26963;SDS011;14521;48.148;-1.656;2023-12-14T08:15:35;3.17;;;0.80;;
26963;SDS011;14521;48.148;-1.656;2023-12-14T08:18:58;4.65;;;0.55;;
26963;SDS011;14521;48.148;-1.656;2023-12-14T08:22:20;0.57;;;0.32;;
26963;SDS011;14521;48.148;-1.656;2023-12-14T08:25:43;0.57;;;0.45;;
26963;SDS011;14521;48.148;-1.656;2023-12-14T08:29:05;4.60;;;0.35;;
26963;SDS011;14521;48.148;-1.656;2023-12-14T08:32:28;1.00;;;0.50;;
26963;SDS011;14521;48.148;-1.656;2023-12-14T08:35:50;0.57;;;0.20;;
26963;SDS011;14521;48.148;-1.656;2023-12-14T08:39:12;1.52;;;0.30;;
26963;SDS011;14521;48.148;-1.656;2023-12-14T08:42:35;1.58;;;0.40;;
26963;SDS011;14521;48.148;-1.656;2023-12-14T08:45:58;0.60;;;0.30;;
26963;SDS011;14521;48.148;-1.656;2023-12-14T08:49:20;0.57;;;0.52;;
26963;SDS011;14521;48.148;-1.656;2023-12-14T08:52:44;2.05;;;0.40;;
26963;SDS011;14521;48.148;-1.656;2023-12-14T08:56:08;0.93;;;0.32;;
26963;SDS011;14521;48.148;-1.656;2023-12-14T08:59:31;0.63;;;0.50;;
26963;SDS011;14521;48.148;-1.656;2023-12-14T09:02:53;0.93;;;0.38;;
26963;SDS011;14521;48.148;-1.656;2023-12-14T09:06:16;2.33;;;0.40;;
26963;SDS011;14521;48.148;-1.656;2023-12-14T09:09:39;1.10;;;0.63;;
26963;SDS011;14521;48.148;-1.656;2023-12-14T09:13:01;0.30;;;0.30;;
26963;SDS011;14521;48.148;-1.656;2023-12-14T09:16:25;0.73;;;0.43;;
26963;SDS011;14521;48.148;-1.656;2023-12-14T09:19:48;0.68;;;0.40;;
26963;SDS011;14521;48.148;-1.656;2023-12-14T09:23:10;0.40;;;0.38;;
26963;SDS011;14521;48.148;-1.656;2023-12-14T09:26:33;0.70;;;0.43;;
26963;SDS011;14521;48.148;-1.656;2023-12-14T09:29:55;0.50;;;0.25;;
26963;SDS011;14521;48.148;-1.656;2023-12-14T09:33:17;0.60;;;0.30;;
26963;SDS011;14521;48.148;-1.656;2023-12-14T09:36:40;0.95;;;0.40;;
26963;SDS011;14521;48.148;-1.656;2023-12-14T09:40:02;1.75;;;0.60;;
26963;SDS011;14521;48.148;-1.656;2023-12-14T09:43:25;0.68;;;0.40;;
26963;SDS011;14521;48.148;-1.656;2023-12-14T09:46:47;0.45;;;0.38;;
26963;SDS011;14521;48.148;-1.656;2023-12-14T09:50:12;1.10;;;0.45;;
26963;SDS011;14521;48.148;-1.656;2023-12-14T09:53:36;1.40;;;0.60;;
26963;SDS011;14521;48.148;-1.656;2023-12-14T09:56:59;1.08;;;0.60;;
26963;SDS011;14521;48.148;-1.656;2023-12-14T10:00:34;0.60;;;0.50;;
26963;SDS011;14521;48.148;-1.656;2023-12-14T10:04:13;3.75;;;0.40;;
26963;SDS011;14521;48.148;-1.656;2023-12-14T10:07:43;1.40;;;0.50;;
26963;SDS011;14521;48.148;-1.656;2023-12-14T10:11:08;1.02;;;0.50;;
26963;SDS011;14521;48.148;-1.656;2023-12-14T10:14:38;1.33;;;0.45;;
26963;SDS011;14521;48.148;-1.656;2023-12-14T10:18:00;3.50;;;0.63;;
26963;SDS011;14521;48.148;-1.656;2023-12-14T10:21:23;2.60;;;0.50;;
26963;SDS011;14521;48.148;-1.656;2023-12-14T10:24:47;0.57;;;0.40;;
26963;SDS011;14521;48.148;-1.656;2023-12-14T10:28:13;2.20;;;0.50;;
26963;SDS011;14521;48.148;-1.656;2023-12-14T10:31:36;2.60;;;0.50;;
26963;SDS011;14521;48.148;-1.656;2023-12-14T10:35:01;1.33;;;0.30;;
26963;SDS011;14521;48.148;-1.656;2023-12-14T10:38:24;1.13;;;0.60;;
26963;SDS011;14521;48.148;-1.656;2023-12-14T10:41:47;2.60;;;0.68;;
26963;SDS011;14521;48.148;-1.656;2023-12-14T10:45:21;0.90;;;0.40;;
26963;SDS011;14521;48.148;-1.656;2023-12-14T10:48:49;0.88;;;0.40;;
26963;SDS011;14521;48.148;-1.656;2023-12-14T10:52:13;0.88;;;0.50;;
26963;SDS011;14521;48.148;-1.656;2023-12-14T10:59:03;0.68;;;0.60;;
26963;SDS011;14521;48.148;-1.656;2023-12-14T11:02:26;1.65;;;0.40;;
26963;SDS011;14521;48.148;-1.656;2023-12-14T11:05:48;0.90;;;0.40;;
26963;SDS011;14521;48.148;-1.656;2023-12-14T11:09:11;1.25;;;0.73;;
26963;SDS011;14521;48.148;-1.656;2023-12-14T11:12:36;1.58;;;0.65;;
26963;SDS011;14521;48.148;-1.656;2023-12-14T11:15:58;2.97;;;0.60;;
26963;SDS011;14521;48.148;-1.656;2023-12-14T11:22:46;1.13;;;0.60;;
26963;SDS011;14521;48.148;-1.656;2023-12-14T11:26:09;1.63;;;0.47;;
26963;SDS011;14521;48.148;-1.656;2023-12-14T11:29:32;0.52;;;0.50;;
26963;SDS011;14521;48.148;-1.656;2023-12-14T11:32:54;0.45;;;0.40;;
26963;SDS011;14521;48.148;-1.656;2023-12-14T11:36:16;1.35;;;0.50;;
26963;SDS011;14521;48.148;-1.656;2023-12-14T11:39:39;1.15;;;1.10;;
26963;SDS011;14521;48.148;-1.656;2023-12-14T11:43:02;1.17;;;1.08;;
26963;SDS011;14521;48.148;-1.656;2023-12-14T11:46:29;3.22;;;1.00;;
26963;SDS011;14521;48.148;-1.656;2023-12-14T11:49:53;1.60;;;1.50;;
26963;SDS011;14521;48.148;-1.656;2023-12-14T11:53:15;3.00;;;1.85;;
26963;SDS011;14521;48.148;-1.656;2023-12-14T11:56:37;2.63;;;2.42;;
26963;SDS011;14521;48.148;-1.656;2023-12-14T12:00:00;2.75;;;2.55;;
26963;SDS011;14521;48.148;-1.656;2023-12-14T12:03:25;2.40;;;2.20;;
26963;SDS011;14521;48.148;-1.656;2023-12-14T12:06:47;2.95;;;2.25;;
26963;SDS011;14521;48.148;-1.656;2023-12-14T12:10:10;2.17;;;2.08;;
26963;SDS011;14521;48.148;-1.656;2023-12-14T12:13:34;2.58;;;2.15;;
26963;SDS011;14521;48.148;-1.656;2023-12-14T12:16:56;2.75;;;2.38;;
26963;SDS011;14521;48.148;-1.656;2023-12-14T12:20:19;2.92;;;2.70;;
26963;SDS011;14521;48.148;-1.656;2023-12-14T12:23:41;3.78;;;2.70;;
26963;SDS011;14521;48.148;-1.656;2023-12-14T12:27:03;2.85;;;2.60;;
26963;SDS011;14521;48.148;-1.656;2023-12-14T12:30:26;2.88;;;2.58;;
26963;SDS011;14521;48.148;-1.656;2023-12-14T12:33:49;5.60;;;4.13;;
26963;SDS011;14521;48.148;-1.656;2023-12-14T12:37:11;5.95;;;4.13;;
26963;SDS011;14521;48.148;-1.656;2023-12-14T12:40:33;5.70;;;4.13;;
26963;SDS011;14521;48.148;-1.656;2023-12-14T12:43:56;7.28;;;4.38;;
26963;SDS011;14521;48.148;-1.656;2023-12-14T12:47:19;6.63;;;4.63;;
26963;SDS011;14521;48.148;-1.656;2023-12-14T12:50:41;4.00;;;3.60;;
26963;SDS011;14521;48.148;-1.656;2023-12-14T12:54:05;5.50;;;3.75;;
26963;SDS011;14521;48.148;-1.656;2023-12-14T12:57:35;4.93;;;4.32;;
26963;SDS011;14521;48.148;-1.656;2023-12-14T13:00:58;6.38;;;4.30;;
26963;SDS011;14521;48.148;-1.656;2023-12-14T13:04:21;4.47;;;3.97;;
26963;SDS011;14521;48.148;-1.656;2023-12-14T13:07:44;4.00;;;3.60;;
26963;SDS011;14521;48.148;-1.656;2023-12-14T13:11:08;4.57;;;4.10;;
26963;SDS011;14521;48.148;-1.656;2023-12-14T13:14:31;4.85;;;3.30;;
26963;SDS011;14521;48.148;-1.656;2023-12-14T13:17:53;4.32;;;3.40;;
26963;SDS011;14521;48.148;-1.656;2023-12-14T13:21:16;4.25;;;3.05;;
26963;SDS011;14521;48.148;-1.656;2023-12-14T13:24:38;3.58;;;2.60;;
26963;SDS011;14521;48.148;-1.656;2023-12-14T13:28:01;3.15;;;2.67;;
26963;SDS011;14521;48.148;-1.656;2023-12-14T13:31:25;8.90;;;2.92;;
26963;SDS011;14521;48.148;-1.656;2023-12-14T13:34:47;2.95;;;2.13;;
26963;SDS011;14521;48.148;-1.656;2023-12-14T13:38:10;3.95;;;2.58;;
26963;SDS011;14521;48.148;-1.656;2023-12-14T13:41:32;4.45;;;2.60;;
26963;SDS011;14521;48.148;-1.656;2023-12-14T13:45:10;3.75;;;2.00;;
26963;SDS011;14521;48.148;-1.656;2023-12-14T13:48:33;3.55;;;2.60;;
26963;SDS011;14521;48.148;-1.656;2023-12-14T13:51:55;4.90;;;2.10;;
26963;SDS011;14521;48.148;-1.656;2023-12-14T13:55:17;2.40;;;1.90;;
26963;SDS011;14521;48.148;-1.656;2023-12-14T13:58:40;2.92;;;2.40;;
26963;SDS011;14521;48.148;-1.656;2023-12-14T14:02:02;2.83;;;1.90;;
26963;SDS011;14521;48.148;-1.656;2023-12-14T14:05:25;2.42;;;1.67;;
26963;SDS011;14521;48.148;-1.656;2023-12-14T14:08:47;2.95;;;2.13;;
26963;SDS011;14521;48.148;-1.656;2023-12-14T14:12:09;2.63;;;1.75;;
26963;SDS011;14521;48.148;-1.656;2023-12-14T14:15:32;2.05;;;1.58;;
26963;SDS011;14521;48.148;-1.656;2023-12-14T14:18:55;1.75;;;1.63;;
26963;SDS011;14521;48.148;-1.656;2023-12-14T14:22:17;2.47;;;2.13;;
26963;SDS011;14521;48.148;-1.656;2023-12-14T14:25:42;3.25;;;1.67;;
26963;SDS011;14521;48.148;-1.656;2023-12-14T14:29:05;1.95;;;1.85;;
26963;SDS011;14521;48.148;-1.656;2023-12-14T14:32:28;5.07;;;1.75;;
26963;SDS011;14521;48.148;-1.656;2023-12-14T14:35:53;5.25;;;1.83;;
26963;SDS011;14521;48.148;-1.656;2023-12-14T14:39:15;2.25;;;1.50;;
26963;SDS011;14521;48.148;-1.656;2023-12-14T14:42:40;1.42;;;1.33;;
26963;SDS011;14521;48.148;-1.656;2023-12-14T14:46:03;3.20;;;1.23;;
26963;SDS011;14521;48.148;-1.656;2023-12-14T14:49:25;1.90;;;1.27;;
26963;SDS011;14521;48.148;-1.656;2023-12-14T14:52:48;1.77;;;1.10;;
26963;SDS011;14521;48.148;-1.656;2023-12-14T14:56:10;1.38;;;0.95;;
26963;SDS011;14521;48.148;-1.656;2023-12-14T14:59:33;2.53;;;1.35;;
26963;SDS011;14521;48.148;-1.656;2023-12-14T15:02:55;1.30;;;1.10;;
26963;SDS011;14521;48.148;-1.656;2023-12-14T15:06:17;2.08;;;1.35;;
26963;SDS011;14521;48.148;-1.656;2023-12-14T15:09:40;1.40;;;1.30;;
26963;SDS011;14521;48.148;-1.656;2023-12-14T15:13:02;2.00;;;1.02;;
26963;SDS011;14521;48.148;-1.656;2023-12-14T15:16:24;1.70;;;1.17;;
26963;SDS011;14521;48.148;-1.656;2023-12-14T15:19:48;1.50;;;1.23;;
26963;SDS011;14521;48.148;-1.656;2023-12-14T15:23:11;1.48;;;1.20;;
26963;SDS011;14521;48.148;-1.656;2023-12-14T15:26:33;0.75;;;0.70;;
26963;SDS011;14521;48.148;-1.656;2023-12-14T15:29:55;1.73;;;0.90;;
26963;SDS011;14521;48.148;-1.656;2023-12-14T15:33:18;2.38;;;1.17;;
26963;SDS011;14521;48.148;-1.656;2023-12-14T15:36:40;2.17;;;1.25;;
26963;SDS011;14521;48.148;-1.656;2023-12-14T15:40:03;2.15;;;1.10;;
26963;SDS011;14521;48.148;-1.656;2023-12-14T15:43:27;3.20;;;1.17;;
26963;SDS011;14521;48.148;-1.656;2023-12-14T15:46:49;1.27;;;0.82;;
26963;SDS011;14521;48.148;-1.656;2023-12-14T15:50:12;3.20;;;0.90;;
26963;SDS011;14521;48.148;-1.656;2023-12-14T15:53:34;2.83;;;0.93;;
26963;SDS011;14521;48.148;-1.656;2023-12-14T15:56:57;1.13;;;0.85;;
26963;SDS011;14521;48.148;-1.656;2023-12-14T16:00:20;1.52;;;1.00;;
26963;SDS011;14521;48.148;-1.656;2023-12-14T16:03:42;0.90;;;0.80;;
26963;SDS011;14521;48.148;-1.656;2023-12-14T16:07:06;1.50;;;1.17;;
26963;SDS011;14521;48.148;-1.656;2023-12-14T16:10:28;1.33;;;0.95;;
26963;SDS011;14521;48.148;-1.656;2023-12-14T16:13:51;1.10;;;0.68;;
26963;SDS011;14521;48.148;-1.656;2023-12-14T16:17:14;1.23;;;0.90;;
26963;SDS011;14521;48.148;-1.656;2023-12-14T16:20:36;0.90;;;0.82;;
26963;SDS011;14521;48.148;-1.656;2023-12-14T16:23:58;1.63;;;1.08;;
26963;SDS011;14521;48.148;-1.656;2023-12-14T16:27:21;1.58;;;1.10;;
26963;SDS011;14521;48.148;-1.656;2023-12-14T16:30:43;1.15;;;1.05;;
26963;SDS011;14521;48.148;-1.656;2023-12-14T16:34:06;3.55;;;1.00;;
26963;SDS011;14521;48.148;-1.656;2023-12-14T16:37:29;1.13;;;0.80;;
26963;SDS011;14521;48.148;-1.656;2023-12-14T16:40:52;2.80;;;1.20;;
26963;SDS011;14521;48.148;-1.656;2023-12-14T16:44:15;13.98;;;0.80;;
26963;SDS011;14521;48.148;-1.656;2023-12-14T16:47:37;1.52;;;0.98;;
26963;SDS011;14521;48.148;-1.656;2023-12-14T16:50:59;1.45;;;1.20;;
26963;SDS011;14521;48.148;-1.656;2023-12-14T16:54:27;1.40;;;1.00;;
26963;SDS011;14521;48.148;-1.656;2023-12-14T16:57:49;1.95;;;1.13;;
26963;SDS011;14521;48.148;-1.656;2023-12-14T17:01:37;3.38;;;1.00;;
26963;SDS011;14521;48.148;-1.656;2023-12-14T17:04:59;1.73;;;1.08;;
26963;SDS011;14521;48.148;-1.656;2023-12-14T17:08:25;1.58;;;1.00;;
26963;SDS011;14521;48.148;-1.656;2023-12-14T17:11:49;1.55;;;1.05;;
26963;SDS011;14521;48.148;-1.656;2023-12-14T17:15:12;2.60;;;1.20;;
26963;SDS011;14521;48.148;-1.656;2023-12-14T17:18:35;2.25;;;1.30;;
26963;SDS011;14521;48.148;-1.656;2023-12-14T17:21:57;2.70;;;1.13;;
26963;SDS011;14521;48.148;-1.656;2023-12-14T17:25:20;0.93;;;0.70;;
26963;SDS011;14521;48.148;-1.656;2023-12-14T17:28:46;4.97;;;1.05;;
26963;SDS011;14521;48.148;-1.656;2023-12-14T17:32:10;1.10;;;1.00;;
26963;SDS011;14521;48.148;-1.656;2023-12-14T17:35:32;1.55;;;0.95;;
26963;SDS011;14521;48.148;-1.656;2023-12-14T17:38:56;1.27;;;1.02;;
26963;SDS011;14521;48.148;-1.656;2023-12-14T17:42:18;1.05;;;0.88;;
26963;SDS011;14521;48.148;-1.656;2023-12-14T17:45:41;1.15;;;1.05;;
26963;SDS011;14521;48.148;-1.656;2023-12-14T17:49:03;3.13;;;1.00;;
26963;SDS011;14521;48.148;-1.656;2023-12-14T17:52:26;1.65;;;1.05;;
26963;SDS011;14521;48.148;-1.656;2023-12-14T17:55:49;1.55;;;1.13;;
26963;SDS011;14521;48.148;-1.656;2023-12-14T17:59:15;1.23;;;1.02;;
26963;SDS011;14521;48.148;-1.656;2023-12-14T18:02:37;2.08;;;1.40;;
26963;SDS011;14521;48.148;-1.656;2023-12-14T18:06:00;1.45;;;1.10;;
26963;SDS011;14521;48.148;-1.656;2023-12-14T18:09:25;3.00;;;1.23;;
26963;SDS011;14521;48.148;-1.656;2023-12-14T18:12:49;2.97;;;1.35;;
26963;SDS011;14521;48.148;-1.656;2023-12-14T18:16:12;1.00;;;0.80;;
26963;SDS011;14521;48.148;-1.656;2023-12-14T18:19:35;1.25;;;0.98;;
26963;SDS011;14521;48.148;-1.656;2023-12-14T18:22:57;2.90;;;1.00;;
26963;SDS011;14521;48.148;-1.656;2023-12-14T18:26:19;1.95;;;1.13;;
26963;SDS011;14521;48.148;-1.656;2023-12-14T18:29:42;4.30;;;1.80;;
26963;SDS011;14521;48.148;-1.656;2023-12-14T18:33:05;2.15;;;1.05;;
26963;SDS011;14521;48.148;-1.656;2023-12-14T18:36:27;1.10;;;1.00;;
26963;SDS011;14521;48.148;-1.656;2023-12-14T18:39:50;2.28;;;1.17;;
26963;SDS011;14521;48.148;-1.656;2023-12-14T18:43:12;1.10;;;1.00;;
26963;SDS011;14521;48.148;-1.656;2023-12-14T18:46:35;2.53;;;1.00;;
26963;SDS011;14521;48.148;-1.656;2023-12-14T18:49:57;2.95;;;1.23;;
26963;SDS011;14521;48.148;-1.656;2023-12-14T18:53:19;2.45;;;1.20;;
26963;SDS011;14521;48.148;-1.656;2023-12-14T18:56:42;2.55;;;1.20;;
26963;SDS011;14521;48.148;-1.656;2023-12-14T19:00:05;1.50;;;1.15;;
26963;SDS011;14521;48.148;-1.656;2023-12-14T19:03:28;1.58;;;0.88;;
26963;SDS011;14521;48.148;-1.656;2023-12-14T19:06:51;2.63;;;1.30;;
26963;SDS011;14521;48.148;-1.656;2023-12-14T19:10:13;2.45;;;1.45;;
26963;SDS011;14521;48.148;-1.656;2023-12-14T19:13:35;2.65;;;1.00;;
26963;SDS011;14521;48.148;-1.656;2023-12-14T19:16:58;1.25;;;1.15;;
26963;SDS011;14521;48.148;-1.656;2023-12-14T19:20:21;1.35;;;1.00;;
26963;SDS011;14521;48.148;-1.656;2023-12-14T19:23:43;2.40;;;1.85;;
26963;SDS011;14521;48.148;-1.656;2023-12-14T19:27:06;2.22;;;1.15;;
26963;SDS011;14521;48.148;-1.656;2023-12-14T19:30:28;1.75;;;1.23;;
26963;SDS011;14521;48.148;-1.656;2023-12-14T19:33:51;1.67;;;1.30;;
26963;SDS011;14521;48.148;-1.656;2023-12-14T19:37:13;1.30;;;1.20;;
26963;SDS011;14521;48.148;-1.656;2023-12-14T19:40:35;4.13;;;1.50;;
26963;SDS011;14521;48.148;-1.656;2023-12-14T19:43:58;1.40;;;1.30;;
26963;SDS011;14521;48.148;-1.656;2023-12-14T19:47:20;1.40;;;1.30;;
26963;SDS011;14521;48.148;-1.656;2023-12-14T19:50:43;1.35;;;1.27;;
26963;SDS011;14521;48.148;-1.656;2023-12-14T19:54:06;1.40;;;1.30;;
26963;SDS011;14521;48.148;-1.656;2023-12-14T19:57:28;1.30;;;1.20;;
26963;SDS011;14521;48.148;-1.656;2023-12-14T20:00:51;1.45;;;1.20;;
26963;SDS011;14521;48.148;-1.656;2023-12-14T20:04:14;1.35;;;1.13;;
26963;SDS011;14521;48.148;-1.656;2023-12-14T20:07:38;2.95;;;1.27;;
26963;SDS011;14521;48.148;-1.656;2023-12-14T20:11:01;1.50;;;1.13;;